Terminal Aerodrome Forecast
Issued by NWS

Home | Current Version | Previous Version | Text Only | Print | Product List | Glossary On
Versions: 1 2 3 4 5 6 7 8 9 10 11 12 13 14 15 16 17 18 19
000
FTUS46 KPDT 242000 AAA
TAFBDN
TAF AMD
KBDN 242000Z 2420/2518 11005KT P6SM -RA BKN040 OVC060
      TEMPO 2420/2421 3SM RA BR
     FM242100 03009KT P6SM -SHRA OVC050
     FM250200 07008KT P6SM SCT035 BKN250
     FM250800 15011KT P6SM BKN250
     FM251500 17015KT P6SM SCT070 BKN100=

USA.gov is the U.S. government's official web portal to all federal, state and local government web resources and services.